createdAt,value
2023-05-21T00:00:30.383Z,101587.78
2023-05-21T00:02:59.482Z,101580.72
2023-05-21T00:05:26.916Z,101576.31
2023-05-21T00:07:55.008Z,101573.72
2023-05-21T00:10:22.399Z,101568.41
2023-05-21T00:12:49.832Z,101571.97
2023-05-21T00:15:16.945Z,101572.88
2023-05-21T00:17:44.619Z,101569.34
2023-05-21T00:20:13.136Z,101572.03
2023-05-21T00:22:42.439Z,101568.53
2023-05-21T00:25:11.817Z,101564.13
2023-05-21T00:27:38.938Z,101557.94
2023-05-21T00:30:07.108Z,101557.09
2023-05-21T00:32:34.606Z,101557.97
2023-05-21T00:35:01.755Z,101564.19
2023-05-21T00:37:33.011Z,101559.81
2023-05-21T00:40:01.797Z,101551.88
2023-05-21T00:42:30.627Z,101554.53
2023-05-21T00:44:57.961Z,101548.38
2023-05-21T00:47:27.042Z,101555.41
2023-05-21T00:49:54.548Z,101546.59
2023-05-21T00:52:23.114Z,101544.84
2023-05-21T00:54:51.135Z,101551.06
2023-05-21T00:57:23.323Z,101550.19
2023-05-21T00:59:53.183Z,101549.34
2023-05-21T01:02:20.586Z,101546.69
2023-05-21T01:04:48.008Z,101540.53
2023-05-21T01:07:15.108Z,101542.28
2023-05-21T01:09:43.254Z,101542.31
2023-05-21T01:12:11.562Z,101547.63
2023-05-21T01:14:40.019Z,101537.94
2023-05-21T01:17:10.408Z,101545.03
2023-05-21T01:19:38.294Z,101541.47
2023-05-21T01:22:08.211Z,101545.94
2023-05-21T01:24:37.873Z,101552.13
2023-05-21T01:27:07.838Z,101543.31
2023-05-21T01:29:34.988Z,101538.91
2023-05-21T01:32:14.050Z,101539.78
2023-05-21T01:35:02.838Z,101539.78
2023-05-21T01:38:03.868Z,101543.31
2023-05-21T01:40:38.341Z,101541.56
2023-05-21T01:43:07.708Z,101538.91
2023-05-21T01:45:39.520Z,101535.41
2023-05-21T01:48:09.065Z,101538.94
2023-05-21T01:50:39.375Z,101535.41
2023-05-21T01:53:06.495Z,101537.19
2023-05-21T01:55:34.112Z,101541.56
2023-05-21T01:58:02.496Z,101531.00
2023-05-21T02:00:30.905Z,101520.41
2023-05-21T02:02:58.785Z,101529.25
2023-05-21T02:05:26.219Z,101523.06
2023-05-21T02:07:53.396Z,101531.88
2023-05-21T02:10:20.658Z,101529.25
2023-05-21T02:12:47.978Z,101531.00
2023-05-21T02:15:17.927Z,101523.97
2023-05-21T02:17:46.561Z,101521.31
2023-05-21T02:20:14.568Z,101524.84
2023-05-21T02:22:45.109Z,101523.09
2023-05-21T02:25:15.893Z,101530.16
2023-05-21T02:27:44.526Z,101524.88
2023-05-21T02:30:13.738Z,101521.34
2023-05-21T02:32:43.154Z,101519.53
2023-05-21T02:35:12.560Z,101519.56
2023-05-21T02:37:40.693Z,101523.13
2023-05-21T02:40:10.185Z,101525.78
2023-05-21T02:42:40.183Z,101521.38
2023-05-21T02:45:13.571Z,101519.59
2023-05-21T02:47:41.186Z,101513.41
2023-05-21T02:50:09.689Z,101511.66
2023-05-21T02:52:36.720Z,101506.34
2023-05-21T02:55:04.153Z,101502.84
2023-05-21T02:57:31.251Z,101509.91
2023-05-21T02:59:58.284Z,101499.34
2023-05-21T03:02:25.394Z,101503.75
2023-05-21T03:04:52.502Z,101494.03
2023-05-21T03:07:20.022Z,101493.16
2023-05-21T03:09:47.437Z,101491.41
2023-05-21T03:12:14.571Z,101501.09
2023-05-21T03:14:46.440Z,101488.75
2023-05-21T03:17:17.462Z,101493.16
2023-05-21T03:19:45.151Z,101494.94
2023-05-21T03:22:12.319Z,101494.06
2023-05-21T03:24:41.376Z,101487.88
2023-05-21T03:27:08.526Z,101492.28
2023-05-21T03:29:36.173Z,101487.00
2023-05-21T03:32:03.581Z,101493.19
2023-05-21T03:34:31.251Z,101500.25
2023-05-21T03:36:58.416Z,101490.56
2023-05-21T03:39:25.546Z,101488.78
2023-05-21T03:41:52.635Z,101497.63
2023-05-21T03:44:19.695Z,101491.44
2023-05-21T03:46:46.912Z,101493.19
2023-05-21T03:49:14.736Z,101488.78
2023-05-21T03:51:41.777Z,101491.44
2023-05-21T03:54:08.890Z,101490.53
2023-05-21T03:56:35.975Z,101489.66
2023-05-21T03:59:03.053Z,101490.53
2023-05-21T04:01:30.755Z,101486.09
2023-05-21T04:03:57.950Z,101486.97
2023-05-21T04:06:25.238Z,101484.34
2023-05-21T04:08:52.400Z,101490.50
2023-05-21T04:11:19.441Z,101487.81
2023-05-21T04:13:48.163Z,101487.84
2023-05-21T04:16:19.291Z,101492.22
2023-05-21T04:18:47.536Z,101501.03
2023-05-21T04:21:14.704Z,101497.50
2023-05-21T04:23:41.843Z,101490.41
2023-05-21T04:26:08.900Z,101500.09
2023-05-21T04:28:36.425Z,101508.00
2023-05-21T04:31:03.531Z,101509.75
2023-05-21T04:33:30.592Z,101511.50
2023-05-21T04:35:59.047Z,101507.91
2023-05-21T04:38:26.106Z,101516.75
2023-05-21T04:40:53.618Z,101512.31
2023-05-21T04:43:26.540Z,101519.31
2023-05-21T04:45:57.199Z,101521.09
2023-05-21T04:48:25.623Z,101522.81
2023-05-21T04:50:53.709Z,101527.22
2023-05-21T04:53:20.916Z,101520.97
2023-05-21T04:55:48.184Z,101517.41
2023-05-21T04:58:18.380Z,101516.53
2023-05-21T05:00:50.766Z,101515.63
2023-05-21T05:03:18.158Z,101510.28
2023-05-21T05:05:45.911Z,101504.94
2023-05-21T05:08:15.812Z,101511.94
2023-05-21T05:10:43.337Z,101513.66
2023-05-21T05:13:10.581Z,101505.63
2023-05-21T05:15:37.890Z,101509.97
2023-05-21T05:18:06.619Z,101510.78
2023-05-21T05:20:33.693Z,101508.94
2023-05-21T05:23:00.865Z,101506.22
2023-05-21T05:25:27.883Z,101508.75
2023-05-21T05:27:54.925Z,101502.47
2023-05-21T05:30:22.018Z,101502.41
2023-05-21T05:32:49.088Z,101503.16
2023-05-21T05:35:16.180Z,101497.78
2023-05-21T05:37:43.265Z,101494.13
2023-05-21T05:40:11.044Z,101509.00
2023-05-21T05:42:38.092Z,101513.28
2023-05-21T05:45:05.883Z,101512.31
2023-05-21T05:47:33.097Z,101513.06
2023-05-21T05:50:00.204Z,101509.41
2023-05-21T05:52:27.309Z,101512.75
2023-05-21T05:54:54.376Z,101510.84
2023-05-21T05:57:21.399Z,101511.59
2023-05-21T05:59:48.541Z,101511.47
2023-05-21T06:02:15.965Z,101513.06
2023-05-21T06:04:43.376Z,101510.25
2023-05-21T06:07:11.518Z,101518.09
2023-05-21T06:09:39.074Z,101520.69
2023-05-21T06:12:07.628Z,101518.84
2023-05-21T06:14:34.992Z,101515.22
2023-05-21T06:17:02.084Z,101515.97
2023-05-21T06:19:29.290Z,101518.53
2023-05-21T06:21:56.455Z,101512.13
2023-05-21T06:24:23.578Z,101522.66
2023-05-21T06:26:50.776Z,101515.47
2023-05-21T06:29:18.151Z,101517.13
2023-05-21T06:31:45.208Z,101522.28
2023-05-21T06:34:12.422Z,101523.94
2023-05-21T06:36:39.699Z,101525.56
2023-05-21T06:39:06.963Z,101531.53
2023-05-21T06:41:34.139Z,101534.84
2023-05-21T06:44:01.494Z,101527.44
2023-05-21T06:46:28.654Z,101533.34
2023-05-21T06:48:56.138Z,101529.47
2023-05-21T06:51:23.241Z,101538.09
2023-05-21T06:53:51.047Z,101529.03
2023-05-21T06:56:18.529Z,101529.66
2023-05-21T06:58:45.955Z,101521.16
2023-05-21T07:01:13.089Z,101508.16
2023-05-21T07:03:40.386Z,101513.16
2023-05-21T07:06:07.733Z,101516.38
2023-05-21T07:08:34.959Z,101511.59
2023-05-21T07:11:02.208Z,101510.28
2023-05-21T07:13:30.194Z,101511.78
2023-05-21T07:15:57.389Z,101509.69
2023-05-21T07:18:24.425Z,101515.72
2023-05-21T07:20:51.500Z,101512.94
2023-05-21T07:23:18.571Z,101505.06
2023-05-21T07:25:45.678Z,101507.06
2023-05-21T07:28:12.844Z,101508.84
2023-05-21T07:30:39.930Z,101507.72
2023-05-21T07:33:07.183Z,101502.16
2023-05-21T07:35:34.456Z,101504.38
2023-05-21T07:38:01.642Z,101510.31
2023-05-21T07:40:28.803Z,101508.28
2023-05-21T07:42:56.331Z,101504.28
2023-05-21T07:45:23.433Z,101502.84
2023-05-21T07:47:50.839Z,101505.09
2023-05-21T07:50:18.120Z,101504.78
2023-05-21T07:52:45.204Z,101500.22
2023-05-21T07:55:12.529Z,101511.63
2023-05-21T07:57:39.739Z,101512.94
2023-05-21T08:00:09.690Z,101504.44
2023-05-21T08:02:37.365Z,101510.28
2023-05-21T08:05:05.055Z,101510.84
2023-05-21T08:07:32.666Z,101504.09
2023-05-21T08:10:01.074Z,101504.63
2023-05-21T08:12:29.682Z,101499.75
2023-05-21T08:14:59.287Z,101504.00
2023-05-21T08:17:28.433Z,101488.22
2023-05-21T08:19:55.514Z,101502.84
2023-05-21T08:22:22.692Z,101492.34
2023-05-21T08:24:49.895Z,101491.66
2023-05-21T08:29:44.417Z,101483.66
2023-05-21T08:32:11.625Z,101486.16
2023-05-21T08:34:39.157Z,101483.53
2023-05-21T08:37:06.217Z,101484.63
2023-05-21T08:42:22.580Z,101485.16
2023-05-21T08:45:01.071Z,101485.06
2023-05-21T08:47:34.371Z,101477.38
2023-05-21T08:50:04.520Z,101480.94
2023-05-21T08:52:34.912Z,101474.41
2023-05-21T08:55:06.431Z,101475.91
2023-05-21T08:57:33.655Z,101484.66
2023-05-21T09:00:01.995Z,101477.41
2023-05-21T09:02:34.343Z,101476.47
2023-05-21T09:05:03.602Z,101483.34
2023-05-21T09:07:34.341Z,101479.75
2023-05-21T09:10:08.822Z,101478.69
2023-05-21T09:12:36.569Z,101481.13
2023-05-21T09:15:04.541Z,101476.34
2023-05-21T09:17:31.879Z,101482.16
2023-05-21T09:20:14.783Z,101480.19
2023-05-21T09:22:47.708Z,101475.78
2023-05-21T09:25:18.098Z,101475.53
2023-05-21T09:27:45.390Z,101480.91
2023-05-21T09:30:17.871Z,101480.91
2023-05-21T09:32:46.321Z,101476.34
2023-05-21T09:35:16.429Z,101477.19
2023-05-21T09:37:47.560Z,101475.69
2023-05-21T09:40:20.730Z,101484.59
2023-05-21T09:42:50.577Z,101473.09
2023-05-21T09:45:25.519Z,101472.94
2023-05-21T09:47:56.131Z,101468.88
2023-05-21T09:50:31.575Z,101473.69
2023-05-21T09:52:58.820Z,101459.84
2023-05-21T09:55:27.067Z,101461.56
2023-05-21T09:57:54.428Z,101472.78
2023-05-21T10:00:27.995Z,101459.69
2023-05-21T10:02:58.114Z,101463.84
2023-05-21T10:05:28.306Z,101457.22
2023-05-21T10:08:02.533Z,101451.16
2023-05-21T10:10:31.969Z,101455.34
2023-05-21T10:13:09.032Z,101450.03
2023-05-21T10:15:45.593Z,101442.69
2023-05-21T10:18:14.038Z,101442.72
2023-05-21T10:20:43.618Z,101435.31
2023-05-21T10:23:11.213Z,101433.22
2023-05-21T10:25:38.373Z,101437.31
2023-05-21T10:28:07.128Z,101436.75
2023-05-21T10:30:36.362Z,101427.22
2023-05-21T10:33:05.723Z,101426.44
2023-05-21T10:35:34.536Z,101427.69
2023-05-21T10:38:05.146Z,101426.22
2023-05-21T10:40:32.381Z,101420.19
2023-05-21T10:43:20.718Z,101411.25
2023-05-21T10:46:40.601Z,101422.25
2023-05-21T10:49:16.281Z,101407.56
2023-05-21T10:51:48.813Z,101411.69
2023-05-21T10:54:44.439Z,101407.19
2023-05-21T10:57:47.253Z,101411.63
2023-05-21T11:00:18.341Z,101404.03
2023-05-21T11:02:46.142Z,101398.16
2023-05-21T11:05:14.357Z,101397.84
2023-05-21T11:07:57.662Z,101396.81
2023-05-21T11:10:41.115Z,101383.13
2023-05-21T11:13:14.385Z,101382.16
2023-05-21T11:15:59.805Z,101373.13
2023-05-21T11:18:35.891Z,101374.16
2023-05-21T11:21:22.667Z,101374.00
2023-05-21T11:24:02.434Z,101368.22
2023-05-21T11:26:52.578Z,101362.69
2023-05-21T11:29:47.309Z,101357.72
2023-05-21T11:32:15.726Z,101358.44
2023-05-21T11:34:47.889Z,101361.09
2023-05-21T11:37:23.133Z,101350.69
2023-05-21T11:39:51.586Z,101352.22
2023-05-21T11:42:33.518Z,101346.38
2023-05-21T11:45:02.989Z,101352.56
2023-05-21T11:47:32.219Z,101341.34
2023-05-21T11:50:02.279Z,101352.13
2023-05-21T11:52:31.742Z,101350.19
2023-05-21T11:54:59.987Z,101350.38
2023-05-21T11:57:32.194Z,101345.69
2023-05-21T12:00:02.405Z,101342.47
2023-05-21T12:02:33.426Z,101349.09
2023-05-21T12:05:03.965Z,101345.31
2023-05-21T12:07:31.428Z,101351.41
2023-05-21T12:09:58.808Z,101338.81
2023-05-21T12:12:33.078Z,101337.84
2023-05-21T12:15:10.389Z,101333.84
2023-05-21T12:17:37.698Z,101324.38
2023-05-21T12:20:08.210Z,101329.97
2023-05-21T12:22:40.733Z,101321.97
2023-05-21T12:25:08.647Z,101326.72
2023-05-21T12:27:37.204Z,101334.28
2023-05-21T12:30:05.045Z,101325.31
2023-05-21T12:32:32.466Z,101323.06
2023-05-21T12:34:59.589Z,101328.97
2023-05-21T12:37:35.561Z,101328.56
2023-05-21T12:40:12.027Z,101321.22
2023-05-21T12:42:40.234Z,101329.09
2023-05-21T12:45:08.988Z,101328.78
2023-05-21T12:47:36.828Z,101329.75
2023-05-21T12:50:11.696Z,101336.13
2023-05-21T12:52:43.191Z,101338.69
2023-05-21T12:55:14.966Z,101335.34
2023-05-21T12:57:43.906Z,101339.41
2023-05-21T13:00:12.065Z,101339.50
2023-05-21T13:02:41.314Z,101337.97
2023-05-21T13:05:11.516Z,101340.38
2023-05-21T13:07:41.003Z,101345.66
2023-05-21T13:10:09.038Z,101341.13
2023-05-21T13:12:36.634Z,101344.00
2023-05-21T13:15:09.211Z,101350.03
2023-05-21T13:17:36.339Z,101346.34
2023-05-21T13:20:16.494Z,101346.78
2023-05-21T13:22:50.011Z,101341.50
2023-05-21T13:25:21.215Z,101330.63
2023-05-21T13:27:53.664Z,101336.50
2023-05-21T13:30:22.527Z,101329.25
2023-05-21T13:32:49.744Z,101330.97
2023-05-21T13:35:17.532Z,101344.38
2023-05-21T13:37:45.422Z,101341.66
2023-05-21T13:40:15.778Z,101330.34
2023-05-21T13:42:45.126Z,101325.91
2023-05-21T13:45:15.653Z,101332.38
2023-05-21T13:47:44.369Z,101329.47
2023-05-21T13:50:12.004Z,101327.63
2023-05-21T13:52:39.334Z,101321.06
2023-05-21T13:55:07.404Z,101330.13
2023-05-21T13:57:34.671Z,101322.41
2023-05-21T14:00:01.994Z,101311.47
2023-05-21T14:02:29.528Z,101309.31
2023-05-21T14:04:57.320Z,101302.69
2023-05-21T14:07:24.404Z,101308.97
2023-05-21T14:09:52.385Z,101298.13
2023-05-21T14:12:19.549Z,101298.56
2023-05-21T14:14:49.684Z,101301.81
2023-05-21T14:17:18.282Z,101296.72
2023-05-21T14:19:45.325Z,101295.31
2023-05-21T14:22:12.419Z,101288.28
2023-05-21T14:24:39.604Z,101280.91
2023-05-21T14:27:06.878Z,101275.59
2023-05-21T14:29:33.877Z,101283.69
2023-05-21T14:32:01.016Z,101283.25
2023-05-21T14:34:28.189Z,101286.63
2023-05-21T14:36:55.311Z,101286.44
2023-05-21T14:39:22.389Z,101278.09
2023-05-21T14:41:51.332Z,101282.59
2023-05-21T14:44:18.420Z,101288.94
2023-05-21T14:46:45.502Z,101282.72
2023-05-21T14:49:13.265Z,101280.78
2023-05-21T14:51:40.844Z,101276.69
2023-05-21T14:54:07.870Z,101274.59
2023-05-21T14:56:34.890Z,101266.78
2023-05-21T14:59:01.940Z,101273.38
2023-05-21T15:01:29.029Z,101272.78
2023-05-21T15:03:58.432Z,101279.13
2023-05-21T15:06:25.588Z,101264.16
2023-05-21T15:08:52.757Z,101266.97
2023-05-21T15:11:19.826Z,101271.59
2023-05-21T15:13:46.905Z,101267.28
2023-05-21T15:16:14.132Z,101266.91
2023-05-21T15:18:41.146Z,101261.97
2023-05-21T15:21:08.750Z,101260.94
2023-05-21T15:23:35.736Z,101265.88
2023-05-21T15:26:02.806Z,101259.94
2023-05-21T15:28:29.835Z,101254.22
2023-05-21T15:30:56.966Z,101254.66
2023-05-21T15:33:24.048Z,101261.09
2023-05-21T15:35:51.251Z,101255.03
2023-05-21T15:38:18.397Z,101271.88
2023-05-21T15:40:45.488Z,101267.63
2023-05-21T15:43:12.515Z,101259.44
2023-05-21T15:45:39.686Z,101263.66
2023-05-21T15:48:07.391Z,101260.38
2023-05-21T15:50:35.800Z,101261.63
2023-05-21T15:53:04.776Z,101272.97
2023-05-21T15:55:35.059Z,101259.66
2023-05-21T15:58:03.745Z,101273.81
2023-05-21T16:00:30.782Z,101278.19
2023-05-21T16:02:58.124Z,101264.22
2023-05-21T16:05:26.090Z,101273.94
2023-05-21T16:07:53.171Z,101273.22
2023-05-21T16:10:23.774Z,101275.66
2023-05-21T16:12:51.142Z,101273.03
2023-05-21T16:15:18.226Z,101269.50
2023-05-21T16:17:45.467Z,101279.41
2023-05-21T16:20:13.124Z,101279.13
2023-05-21T16:22:40.670Z,101279.75
2023-05-21T16:25:08.725Z,101281.88
2023-05-21T16:27:36.272Z,101283.06
2023-05-21T16:30:04.156Z,101271.25
2023-05-21T16:32:31.237Z,101270.97
2023-05-21T16:34:58.421Z,101262.75
2023-05-21T16:37:27.094Z,101267.50
2023-05-21T16:39:54.315Z,101268.19
2023-05-21T16:42:21.424Z,101270.97
2023-05-21T16:44:48.690Z,101263.22
2023-05-21T16:47:15.965Z,101272.69
2023-05-21T16:49:42.971Z,101267.53
2023-05-21T16:52:10.126Z,101270.75
2023-05-21T16:54:37.393Z,101267.75
2023-05-21T16:57:04.604Z,101259.38
2023-05-21T16:59:31.783Z,101265.84
2023-05-21T17:01:59.084Z,101262.09
2023-05-21T17:04:26.494Z,101261.94
2023-05-21T17:06:53.576Z,101266.44
2023-05-21T17:09:20.794Z,101264.66
2023-05-21T17:11:47.874Z,101271.03
2023-05-21T17:14:23.332Z,101261.56
2023-05-21T17:17:00.022Z,101264.63
2023-05-21T17:19:27.261Z,101269.66
2023-05-21T17:21:57.617Z,101273.31
2023-05-21T17:24:25.257Z,101272.19
2023-05-21T17:26:53.845Z,101268.38
2023-05-21T17:29:23.260Z,101262.63
2023-05-21T17:31:50.407Z,101273.81
2023-05-21T17:34:18.032Z,101265.50
2023-05-21T17:36:45.184Z,101265.34
2023-05-21T17:39:12.573Z,101262.75
2023-05-21T17:41:39.796Z,101267.22
2023-05-21T17:44:06.833Z,101268.69
2023-05-21T17:46:34.314Z,101262.78
2023-05-21T17:49:02.600Z,101265.53
2023-05-21T17:51:29.619Z,101263.59
2023-05-21T17:53:56.660Z,101267.13
2023-05-21T17:56:23.767Z,101264.97
2023-05-21T17:58:51.396Z,101262.69
2023-05-21T18:01:19.506Z,101266.31
2023-05-21T18:03:47.129Z,101258.75
2023-05-21T18:06:14.392Z,101253.72
2023-05-21T18:08:41.591Z,101255.41
2023-05-21T18:11:10.509Z,101270.25
2023-05-21T18:13:37.727Z,101258.09
2023-05-21T18:16:05.889Z,101257.38
2023-05-21T18:18:33.044Z,101267.75
2023-05-21T18:21:00.381Z,101267.31
2023-05-21T18:23:28.871Z,101259.31
2023-05-21T18:25:56.562Z,101250.53
2023-05-21T18:28:23.762Z,101261.59
2023-05-21T18:30:50.938Z,101254.59
2023-05-21T18:33:18.025Z,101260.88
2023-05-21T18:35:45.226Z,101263.47
2023-05-21T18:38:12.987Z,101255.41
2023-05-21T18:40:40.081Z,101263.44
2023-05-21T18:43:07.207Z,101268.06
2023-05-21T18:45:34.658Z,101262.72
2023-05-21T18:48:03.166Z,101250.50
2023-05-21T18:50:31.786Z,101258.22
2023-05-21T18:52:59.044Z,101248.75
2023-05-21T18:55:26.481Z,101255.72
2023-05-21T18:57:55.633Z,101248.28
2023-05-21T19:00:23.102Z,101255.25
2023-05-21T19:02:50.161Z,101248.03
2023-05-21T19:05:17.559Z,101240.84
2023-05-21T19:07:44.796Z,101242.75
2023-05-21T19:10:12.631Z,101249.97
2023-05-21T19:12:41.881Z,101247.22
2023-05-21T19:15:10.035Z,101244.47
2023-05-21T19:17:39.089Z,101248.16
2023-05-21T19:20:10.458Z,101248.00
2023-05-21T19:22:37.828Z,101247.91
2023-05-21T19:25:05.487Z,101249.59
2023-05-21T19:27:32.595Z,101259.38
2023-05-21T19:29:59.666Z,101259.13
2023-05-21T19:32:26.798Z,101265.19
2023-05-21T19:34:53.807Z,101267.53
2023-05-21T19:37:20.894Z,101272.94
2023-05-21T19:39:50.017Z,101270.09
2023-05-21T19:42:21.380Z,101272.13
2023-05-21T19:44:48.685Z,101267.84
2023-05-21T19:47:15.823Z,101271.47
2023-05-21T19:49:43.090Z,101270.38
2023-05-21T19:52:10.540Z,101270.16
2023-05-21T19:54:37.642Z,101278.88
2023-05-21T19:57:05.084Z,101275.06
2023-05-21T19:59:32.188Z,101268.44
2023-05-21T20:01:59.385Z,101277.06
2023-05-21T20:04:26.781Z,101275.78
2023-05-21T20:06:53.970Z,101268.28
2023-05-21T20:09:21.205Z,101271.22
2023-05-21T20:11:48.354Z,101259.25
2023-05-21T20:14:15.560Z,101265.91
2023-05-21T20:16:42.785Z,101267.28
2023-05-21T20:19:10.868Z,101270.25
2023-05-21T20:21:38.072Z,101274.97
2023-05-21T20:24:05.808Z,101276.25
2023-05-21T20:26:35.303Z,101273.84
2023-05-21T20:29:02.426Z,101273.34
2023-05-21T20:31:29.714Z,101271.81
2023-05-21T20:33:56.867Z,101277.59
2023-05-21T20:36:26.266Z,101269.81
2023-05-21T20:38:53.330Z,101277.97
2023-05-21T20:41:20.365Z,101279.97
2023-05-21T20:43:47.667Z,101276.81
2023-05-21T20:46:17.489Z,101277.97
2023-05-21T20:48:44.701Z,101278.47
2023-05-21T20:51:12.223Z,101279.03
2023-05-21T20:53:39.194Z,101282.25
2023-05-21T20:56:08.040Z,101280.88
2023-05-21T20:58:36.599Z,101285.78
2023-05-21T21:01:03.694Z,101287.06
2023-05-21T21:03:33.896Z,101281.09
2023-05-21T21:06:01.246Z,101285.00
2023-05-21T21:08:28.268Z,101274.63
2023-05-21T21:10:55.316Z,101275.81
2023-05-21T21:13:22.324Z,101272.56
2023-05-21T21:15:49.408Z,101271.09
2023-05-21T21:18:16.840Z,101279.38
2023-05-21T21:20:49.409Z,101273.41
2023-05-21T21:23:16.665Z,101281.66
2023-05-21T21:25:43.850Z,101276.50
2023-05-21T21:28:11.029Z,101282.09
2023-05-21T21:30:41.369Z,101284.00
2023-05-21T21:33:08.914Z,101276.19
2023-05-21T21:35:36.045Z,101279.06
2023-05-21T21:38:04.981Z,101271.28
2023-05-21T21:40:32.145Z,101277.69
2023-05-21T21:42:59.227Z,101272.53
2023-05-21T21:45:26.329Z,101274.50
2023-05-21T21:47:53.404Z,101278.19
2023-05-21T21:50:20.509Z,101277.44
2023-05-21T21:52:48.913Z,101282.09
2023-05-21T21:55:16.136Z,101284.88
2023-05-21T21:57:43.203Z,101282.41
2023-05-21T22:00:20.931Z,101282.63
2023-05-21T22:02:48.085Z,101282.81
2023-05-21T22:05:15.318Z,101290.84
2023-05-21T22:07:46.471Z,101282.94
2023-05-21T22:10:17.418Z,101285.75
2023-05-21T22:12:46.191Z,101285.03
2023-05-21T22:15:28.766Z,101287.78
2023-05-21T22:17:56.039Z,101284.41
2023-05-21T22:20:23.354Z,101284.56
2023-05-21T22:22:50.610Z,101274.06
2023-05-21T22:25:17.783Z,101279.59
2023-05-21T22:27:45.036Z,101276.16
2023-05-21T22:30:12.591Z,101278.00
2023-05-21T22:32:39.803Z,101279.03
2023-05-21T22:35:07.990Z,101278.22
2023-05-21T22:37:37.258Z,101272.13
2023-05-21T22:40:09.223Z,101273.97
2023-05-21T22:42:36.572Z,101260.72
2023-05-21T22:45:04.300Z,101265.22
2023-05-21T22:47:32.270Z,101270.75
2023-05-21T22:50:00.726Z,101268.13
2023-05-21T22:52:28.761Z,101265.47
2023-05-21T22:54:57.863Z,101270.91
2023-05-21T22:57:24.968Z,101266.56
2023-05-21T22:59:51.946Z,101271.94
2023-05-21T23:02:19.151Z,101271.94
2023-05-21T23:04:46.443Z,101280.06
2023-05-21T23:07:13.664Z,101268.63
2023-05-21T23:09:41.083Z,101278.44
2023-05-21T23:12:10.044Z,101286.56
2023-05-21T23:14:37.037Z,101275.09
2023-05-21T23:17:04.525Z,101272.56
2023-05-21T23:19:32.974Z,101280.63
2023-05-21T23:22:00.479Z,101272.78
2023-05-21T23:24:29.356Z,101272.91
2023-05-21T23:27:01.698Z,101278.31
2023-05-21T23:29:30.370Z,101282.81
2023-05-21T23:31:57.879Z,101275.75
2023-05-21T23:34:25.588Z,101267.81
2023-05-21T23:36:52.941Z,101263.44
2023-05-21T23:39:20.000Z,101260.88
2023-05-21T23:41:47.241Z,101261.84
2023-05-21T23:44:15.423Z,101262.91
2023-05-21T23:46:45.709Z,101255.84
2023-05-21T23:49:12.784Z,101269.25
2023-05-21T23:51:40.091Z,101274.69
2023-05-21T23:54:08.125Z,101267.66
2023-05-21T23:56:35.269Z,101263.28
2023-05-21T23:59:02.313Z,101259.94
